Time;durP1;ratioP1;P1;durP2;ratioP2;P2;SDS_P1;SDS_P2;PMS_P1;PMS_P2;Temp;Humidity;BMP_temperature;BMP_pressure;BME280_temperature;BME280_humidity;BME280_pressure;Samples;Min_cycle;Max_cycle;Signal;HPM_P1;HPM_P2
2021/01/09 00:00:13;;;;;;;32.28;22.48;;;1.00;93.20;;;;;;5052649;28;20449;-78
2021/01/09 00:02:40;;;;;;;146.27;27.73;;;0.90;93.20;;;;;;5046186;28;20069;-75
2021/01/09 00:05:06;;;;;;;50.63;22.90;;;0.70;92.90;;;;;;5056388;28;20037;-80
2021/01/09 00:07:32;;;;;;;57.08;24.80;;;0.70;93.00;;;;;;5047942;28;20036;-77
2021/01/09 00:09:59;;;;;;;29.33;20.40;;;0.70;93.10;;;;;;5048198;28;20037;-76
2021/01/09 00:12:25;;;;;;;44.83;21.85;;;0.70;93.20;;;;;;5046838;28;20108;-77
2021/01/09 00:14:51;;;;;;;33.25;20.27;;;0.70;93.20;;;;;;5051123;28;20140;-75
2021/01/09 00:17:17;;;;;;;28.48;18.60;;;0.80;93.30;;;;;;5044314;28;20042;-76
2021/01/09 00:19:42;;;;;;;24.83;19.67;;;0.80;93.40;;;;;;5047041;28;20071;-75
2021/01/09 00:22:08;;;;;;;27.58;20.00;;;0.90;93.40;;;;;;5046266;28;20040;-75
2021/01/09 00:24:35;;;;;;;30.40;20.02;;;0.90;93.40;;;;;;5048014;28;20434;-82
2021/01/09 00:27:01;;;;;;;43.50;21.52;;;0.90;93.30;;;;;;5051350;28;20047;-79
2021/01/09 00:29:26;;;;;;;31.60;21.08;;;1.00;93.10;;;;;;5050266;28;20028;-77
2021/01/09 00:31:52;;;;;;;92.65;25.60;;;0.90;92.90;;;;;;5048860;28;20086;-75
2021/01/09 00:34:20;;;;;;;63.85;25.20;;;0.80;92.80;;;;;;5053541;28;20025;-75
2021/01/09 00:36:47;;;;;;;80.47;21.73;;;0.60;92.50;;;;;;5053036;28;20472;-75
2021/01/09 00:39:13;;;;;;;80.97;22.38;;;0.50;92.50;;;;;;5050152;28;20635;-75
2021/01/09 00:41:39;;;;;;;55.35;19.20;;;0.40;92.60;;;;;;5052537;28;20032;-75
2021/01/09 00:44:06;;;;;;;103.75;23.23;;;0.40;92.80;;;;;;5056416;28;20029;-76
2021/01/09 00:46:32;;;;;;;23.63;17.75;;;0.40;92.90;;;;;;5051060;28;20472;-76
2021/01/09 00:48:58;;;;;;;28.45;17.63;;;0.40;93.00;;;;;;5044872;28;20429;-75
2021/01/09 00:51:24;;;;;;;24.70;17.38;;;0.50;93.10;;;;;;5047817;28;20163;-75
2021/01/09 00:53:49;;;;;;;27.02;19.88;;;0.50;93.10;;;;;;5053090;28;20074;-75
2021/01/09 00:56:16;;;;;;;25.42;17.73;;;0.50;93.20;;;;;;5049583;28;20033;-76
2021/01/09 00:58:42;;;;;;;29.98;20.27;;;0.60;93.30;;;;;;5053494;28;20050;-75
2021/01/09 01:01:08;;;;;;;53.25;19.88;;;0.60;93.20;;;;;;5046987;28;20029;-74
2021/01/09 01:03:34;;;;;;;43.58;17.80;;;0.50;93.10;;;;;;5051450;28;20052;-75
2021/01/09 01:05:59;;;;;;;111.07;19.65;;;0.50;92.90;;;;;;5045570;28;20033;-82
2021/01/09 01:08:25;;;;;;;23.17;15.65;;;0.40;92.90;;;;;;5047595;28;20373;-75
2021/01/09 01:10:54;;;;;;;28.92;16.15;;;0.40;92.80;;;;;;5047940;28;20060;-75
2021/01/09 01:13:20;;;;;;;56.40;17.85;;;0.40;92.90;;;;;;5045389;28;20036;-75
2021/01/09 01:15:46;;;;;;;30.42;16.85;;;0.20;92.40;;;;;;5049359;28;21149;-79
2021/01/09 01:18:12;;;;;;;50.00;18.83;;;0.00;92.20;;;;;;5046091;28;20044;-75
2021/01/09 01:20:37;;;;;;;141.95;26.00;;;-3276.70;92.20;;;;;;5048740;28;20037;-78
2021/01/09 01:23:03;;;;;;;116.95;26.60;;;-3276.70;92.30;;;;;;5047652;28;20045;-75
2021/01/09 01:25:29;;;;;;;118.45;24.25;;;-3276.50;92.50;;;;;;5047529;28;20415;-75
2021/01/09 01:27:54;;;;;;;35.58;20.10;;;-3276.40;92.70;;;;;;5050168;28;20040;-75
2021/01/09 01:30:20;;;;;;;41.85;21.23;;;-3276.50;93.00;;;;;;5050236;28;20159;-75
2021/01/09 01:32:46;;;;;;;27.80;19.83;;;-3276.60;93.10;;;;;;5049203;28;20036;-74
2021/01/09 01:35:11;;;;;;;52.15;22.15;;;-3276.70;93.30;;;;;;5058358;28;20044;-81
2021/01/09 01:37:37;;;;;;;29.80;21.35;;;-3276.70;93.30;;;;;;5049202;28;20451;-75
2021/01/09 01:40:06;;;;;;;29.73;20.15;;;-3276.70;93.30;;;;;;5051021;28;20052;-75
2021/01/09 01:42:32;;;;;;;35.00;22.50;;;0.00;93.50;;;;;;5052217;28;20037;-80
2021/01/09 01:44:58;;;;;;;25.08;17.52;;;0.00;93.50;;;;;;5050794;28;20047;-77
2021/01/09 01:47:24;;;;;;;22.42;16.90;;;0.00;93.40;;;;;;5051880;28;20490;-76
2021/01/09 01:49:51;;;;;;;25.10;16.30;;;0.00;93.40;;;;;;5049229;28;20037;-75
2021/01/09 01:52:17;;;;;;;23.05;16.92;;;0.00;93.40;;;;;;5050403;28;20501;-77
2021/01/09 01:54:45;;;;;;;26.40;16.05;;;0.00;93.20;;;;;;5049385;28;20045;-78
2021/01/09 01:57:12;;;;;;;65.68;18.13;;;0.00;93.10;;;;;;5051801;28;20055;-75
2021/01/09 01:59:41;;;;;;;29.48;16.52;;;-3276.70;93.20;;;;;;5062175;28;20033;-78
2021/01/09 02:02:08;;;;;;;133.85;21.15;;;0.00;93.20;;;;;;5061170;28;20550;-75
2021/01/09 02:04:34;;;;;;;21.55;16.17;;;-3276.70;92.90;;;;;;5045509;28;20450;-75
2021/01/09 02:07:10;;;;;;;22.65;15.90;;;-3276.60;92.90;;;;;;5047243;28;20064;-76
2021/01/09 02:09:42;;;;;;;45.13;17.60;;;-3276.70;93.00;;;;;;5050473;28;20041;-75
2021/01/09 02:12:13;;;;;;;23.20;16.40;;;-3276.60;92.80;;;;;;5052401;28;20032;-76
2021/01/09 02:14:39;;;;;;;19.42;14.70;;;-3276.60;92.90;;;;;;5048197;28;20039;-76
2021/01/09 02:17:06;;;;;;;24.17;15.65;;;-3276.70;92.90;;;;;;5048109;28;20555;-76
2021/01/09 02:19:39;;;;;;;24.17;14.38;;;-3276.70;92.80;;;;;;5050320;28;20051;-76
2021/01/09 02:22:08;;;;;;;17.85;14.18;;;-3276.60;92.70;;;;;;5050873;28;20041;-84
2021/01/09 02:24:34;;;;;;;86.55;21.08;;;-3276.70;92.60;;;;;;5049963;28;20032;-76
2021/01/09 02:27:03;;;;;;;18.58;14.15;;;-3276.60;92.50;;;;;;5050328;28;20037;-75
2021/01/09 02:29:32;;;;;;;23.17;14.93;;;-3276.50;92.40;;;;;;5047195;28;20484;-75
2021/01/09 02:32:02;;;;;;;20.10;15.00;;;-3276.60;92.60;;;;;;5053695;28;20032;-78
2021/01/09 02:34:55;;;;;;;20.08;14.60;;;-3276.60;92.50;;;;;;5058697;28;20035;-77
2021/01/09 02:37:23;;;;;;;23.00;13.57;;;-3276.60;92.40;;;;;;5043755;28;20091;-80
2021/01/09 02:39:50;;;;;;;24.77;13.98;;;-3276.60;92.30;;;;;;5049665;28;20048;-76
2021/01/09 02:42:17;;;;;;;30.33;15.32;;;-3276.60;92.30;;;;;;5051934;28;20082;-76
2021/01/09 02:44:44;;;;;;;17.38;13.57;;;-3276.60;92.30;;;;;;5048844;28;20037;-76
2021/01/09 02:47:10;;;;;;;61.42;16.15;;;-3276.50;92.30;;;;;;5046179;28;20084;-75
2021/01/09 02:49:35;;;;;;;19.45;13.73;;;-3276.50;92.30;;;;;;5048754;28;20033;-76
2021/01/09 02:52:01;;;;;;;109.95;20.17;;;-3276.40;92.10;;;;;;5048771;28;20029;-77
2021/01/09 02:54:26;;;;;;;20.17;13.95;;;-3276.40;92.20;;;;;;5048470;28;20052;-77
2021/01/09 02:56:52;;;;;;;102.75;17.27;;;-3276.40;92.30;;;;;;5050103;28;20028;-81
2021/01/09 02:59:18;;;;;;;56.63;14.43;;;-3276.40;92.40;;;;;;5047557;28;20044;-77
2021/01/09 03:01:43;;;;;;;18.08;12.93;;;-3276.40;92.20;;;;;;5052981;28;20040;-76
2021/01/09 03:04:09;;;;;;;21.02;13.23;;;-3276.40;92.20;;;;;;5056121;28;20037;-76
2021/01/09 03:06:35;;;;;;;18.92;13.63;;;-3276.40;92.40;;;;;;5055928;28;20031;-78
2021/01/09 03:09:00;;;;;;;17.55;13.52;;;-3276.40;92.30;;;;;;5052080;28;20044;-86
2021/01/09 03:11:26;;;;;;;24.35;14.90;;;-3276.50;92.30;;;;;;5048244;28;20059;-77
2021/01/09 03:13:51;;;;;;;24.27;15.40;;;-3276.50;92.20;;;;;;5048298;28;20686;-76
2021/01/09 03:16:17;;;;;;;24.67;14.48;;;-3276.40;92.10;;;;;;5049959;28;20105;-75
2021/01/09 03:18:43;;;;;;;25.00;14.27;;;-3276.40;92.10;;;;;;5048398;28;20037;-77
2021/01/09 03:21:09;;;;;;;24.25;13.27;;;-3276.30;91.90;;;;;;5049076;28;20036;-82
2021/01/09 03:23:34;;;;;;;27.23;14.52;;;-3276.20;91.80;;;;;;5052555;28;20055;-76
2021/01/09 03:26:00;;;;;;;28.90;15.23;;;-3276.20;91.90;;;;;;5048321;28;20041;-76
2021/01/09 03:28:26;;;;;;;42.13;14.60;;;-3276.30;91.70;;;;;;5048508;28;20480;-77
2021/01/09 03:30:52;;;;;;;27.77;14.27;;;-3276.20;91.30;;;;;;5048185;28;20044;-76
2021/01/09 03:33:18;;;;;;;24.95;13.32;;;-3276.20;91.30;;;;;;5049665;28;20059;-77
2021/01/09 03:35:44;;;;;;;27.70;14.88;;;-3276.10;91.20;;;;;;5055085;28;20052;-78
2021/01/09 03:38:09;;;;;;;114.82;19.90;;;-3276.10;91.60;;;;;;5053148;28;20049;-77
2021/01/09 03:40:35;;;;;;;20.58;12.95;;;-3276.10;91.70;;;;;;5053584;28;20044;-77
2021/01/09 03:43:01;;;;;;;17.48;12.75;;;-3276.10;91.80;;;;;;5048066;28;20040;-77
2021/01/09 03:45:27;;;;;;;78.65;15.75;;;-3276.10;91.80;;;;;;5052552;28;20040;-80
2021/01/09 03:47:52;;;;;;;15.82;12.43;;;-3276.20;91.90;;;;;;5046143;28;20062;-77
2021/01/09 03:50:18;;;;;;;30.85;14.30;;;-3276.10;91.80;;;;;;5047323;28;20029;-81
2021/01/09 03:52:44;;;;;;;25.35;13.63;;;-3276.10;92.00;;;;;;5046816;28;20502;-77
2021/01/09 03:55:10;;;;;;;19.23;13.32;;;-3276.10;92.00;;;;;;5046723;28;20056;-79
2021/01/09 03:57:35;;;;;;;37.72;13.95;;;-3276.10;92.00;;;;;;5046619;28;20040;-76
2021/01/09 04:00:03;;;;;;;37.45;15.32;;;-3276.10;92.00;;;;;;5045576;28;20037;-77
2021/01/09 04:02:28;;;;;;;37.95;13.75;;;-3276.00;91.90;;;;;;5051602;28;20043;-78
2021/01/09 04:04:54;;;;;;;45.10;14.43;;;-3276.10;92.10;;;;;;5058134;28;20410;-77
2021/01/09 04:07:20;;;;;;;20.58;13.55;;;-3276.10;92.10;;;;;;5048277;28;20044;-76
2021/01/09 04:09:45;;;;;;;44.45;14.23;;;-3276.00;91.90;;;;;;5053933;28;20207;-75
2021/01/09 04:12:11;;;;;;;30.45;14.20;;;-3276.00;92.00;;;;;;5048014;28;20040;-78
2021/01/09 04:14:37;;;;;;;40.47;15.00;;;-3276.00;92.00;;;;;;5050844;28;20051;-79
2021/01/09 04:17:02;;;;;;;27.80;14.20;;;-3276.00;92.00;;;;;;5046923;28;20041;-78
2021/01/09 04:19:28;;;;;;;20.38;13.70;;;-3276.00;92.00;;;;;;5048871;28;20025;-76
2021/01/09 04:21:54;;;;;;;27.63;13.05;;;-3276.00;92.00;;;;;;5060445;28;20039;-76
2021/01/09 04:24:21;;;;;;;16.10;12.55;;;-3276.00;92.00;;;;;;5047068;28;20029;-76
2021/01/09 04:27:01;;;;;;;28.90;14.98;;;-3276.00;92.10;;;;;;5046508;28;20041;-76
2021/01/09 04:29:27;;;;;;;25.20;14.35;;;-3276.00;92.10;;;;;;5043146;28;20108;-76
2021/01/09 04:31:54;;;;;;;18.23;13.35;;;-3276.00;92.00;;;;;;5047866;28;20029;-77
2021/01/09 04:34:21;;;;;;;21.42;14.13;;;-3275.90;91.70;;;;;;5052337;28;20116;-78
2021/01/09 04:36:46;;;;;;;25.40;12.95;;;-3275.90;91.70;;;;;;5048841;28;20029;-83
2021/01/09 04:39:15;;;;;;;39.63;14.50;;;-3275.80;91.30;;;;;;5047200;28;20484;-76
2021/01/09 04:41:42;;;;;;;31.85;13.30;;;-3275.70;91.20;;;;;;5050865;28;20054;-79
2021/01/09 04:44:09;;;;;;;24.40;12.30;;;-3275.70;91.10;;;;;;5050291;28;20041;-83
2021/01/09 04:46:44;;;;;;;57.80;15.25;;;-3275.60;91.00;;;;;;5056587;28;20477;-82
2021/01/09 04:49:11;;;;;;;35.35;12.68;;;-3275.60;91.20;;;;;;5045460;28;20057;-76
2021/01/09 04:51:37;;;;;;;28.25;13.65;;;-3275.60;91.30;;;;;;5051599;28;20082;-76
2021/01/09 04:54:03;;;;;;;25.83;14.50;;;-3275.50;91.50;;;;;;5058061;28;20044;-78
2021/01/09 04:56:29;;;;;;;17.80;13.88;;;-3275.60;91.60;;;;;;5045324;28;20064;-78
2021/01/09 04:58:55;;;;;;;34.33;14.40;;;-3275.60;91.70;;;;;;5045370;28;20045;-77
2021/01/09 05:01:21;;;;;;;34.90;14.20;;;-3275.60;91.70;;;;;;5044677;28;20341;-77
2021/01/09 05:03:48;;;;;;;86.00;18.02;;;-3275.50;91.70;;;;;;5051077;28;20044;-76
2021/01/09 05:06:23;;;;;;;18.48;13.18;;;-3275.50;91.60;;;;;;5052240;28;20047;-76
2021/01/09 05:08:48;;;;;;;21.45;13.50;;;-3275.50;91.70;;;;;;5057132;28;20033;-76
2021/01/09 05:11:20;;;;;;;94.88;15.80;;;-3275.50;91.70;;;;;;5058247;28;20150;-76
2021/01/09 05:13:47;;;;;;;24.17;13.00;;;-3275.40;91.70;;;;;;5050146;28;20068;-78
2021/01/09 05:16:14;;;;;;;18.05;12.55;;;-3275.40;91.80;;;;;;5054510;28;20392;-77
2021/01/09 05:18:40;;;;;;;22.63;12.23;;;-3275.40;92.00;;;;;;5052062;28;20045;-75
2021/01/09 05:21:10;;;;;;;20.00;12.02;;;-3275.50;92.10;;;;;;5062860;28;20040;-77
2021/01/09 05:23:49;;;;;;;17.35;12.02;;;-3275.50;92.00;;;;;;5046716;28;20040;-80
2021/01/09 05:26:22;;;;;;;20.95;12.65;;;-3275.40;91.80;;;;;;5057758;28;20043;-76
2021/01/09 05:28:50;;;;;;;19.50;12.77;;;-3275.40;91.90;;;;;;5049343;28;20067;-79
2021/01/09 05:31:17;;;;;;;20.50;13.57;;;-3275.40;92.00;;;;;;5054115;28;20029;-77
2021/01/09 05:33:43;;;;;;;18.23;13.70;;;-3275.40;91.90;;;;;;5051513;28;20061;-77
2021/01/09 05:36:09;;;;;;;18.73;13.68;;;-3275.40;92.00;;;;;;5047967;28;20029;-79
2021/01/09 05:38:37;;;;;;;28.50;15.68;;;-3275.40;92.10;;;;;;5058671;28;20041;-79
2021/01/09 05:41:04;;;;;;;34.53;17.38;;;-3275.40;91.90;;;;;;5051881;28;20487;-81
2021/01/09 05:43:30;;;;;;;32.42;14.85;;;-3275.30;91.50;;;;;;5050973;28;20037;-76
2021/01/09 05:45:57;;;;;;;37.33;14.38;;;-3275.30;91.30;;;;;;5050369;28;20261;-76
2021/01/09 05:48:24;;;;;;;46.25;13.35;;;-3275.20;91.30;;;;;;5051111;28;20108;-76
2021/01/09 05:50:51;;;;;;;48.50;15.35;;;-3275.20;91.40;;;;;;5052684;28;20119;-76
2021/01/09 05:53:37;;;;;;;25.52;13.95;;;-3275.20;91.40;;;;;;5054103;28;20468;-77
2021/01/09 05:56:04;;;;;;;23.50;13.57;;;-3275.20;91.30;;;;;;5051445;28;20068;-78
2021/01/09 05:58:30;;;;;;;24.45;13.52;;;-3275.10;91.30;;;;;;5050216;28;20111;-76
2021/01/09 06:01:06;;;;;;;48.92;15.25;;;-3275.10;91.30;;;;;;5050041;28;20403;-79
2021/01/09 06:03:46;;;;;;;32.72;16.23;;;-3275.10;91.40;;;;;;5043914;28;20388;-76
2021/01/09 06:06:18;;;;;;;25.48;16.65;;;-3275.10;91.40;;;;;;5048956;28;20063;-76
2021/01/09 06:08:49;;;;;;;25.15;16.45;;;-3275.10;91.50;;;;;;5049516;28;20041;-76
2021/01/09 06:11:20;;;;;;;29.23;17.45;;;-3275.10;91.60;;;;;;5061615;28;20492;-76
2021/01/09 06:13:48;;;;;;;21.35;15.70;;;-3275.10;91.80;;;;;;5050539;28;20557;-77
2021/01/09 06:16:14;;;;;;;54.58;19.88;;;-3275.10;91.90;;;;;;5049259;28;20127;-82
2021/01/09 06:18:41;;;;;;;23.25;15.75;;;-3275.00;91.50;;;;;;5054400;28;20057;-77
2021/01/09 06:21:08;;;;;;;30.90;16.38;;;-3275.00;91.70;;;;;;5062651;28;20124;-80
2021/01/09 06:23:34;;;;;;;24.65;15.80;;;-3275.10;91.90;;;;;;5051858;28;20036;-81
2021/01/09 06:26:01;;;;;;;19.00;15.02;;;-3275.00;91.70;;;;;;5050581;28;20167;-76
2021/01/09 06:28:35;;;;;;;22.30;16.02;;;-3275.10;91.90;;;;;;5046449;28;20042;-77
2021/01/09 06:31:01;;;;;;;22.80;15.73;;;-3275.10;92.00;;;;;;5050466;28;20033;-77
2021/01/09 06:33:31;;;;;;;21.58;15.52;;;-3275.10;91.90;;;;;;5049992;28;20064;-77
2021/01/09 06:35:59;;;;;;;21.70;15.68;;;-3275.00;91.80;;;;;;5059238;28;20051;-77
2021/01/09 06:38:26;;;;;;;27.25;17.05;;;-3275.00;91.80;;;;;;5048649;28;20032;-79
2021/01/09 06:40:53;;;;;;;28.40;18.60;;;-3275.10;92.00;;;;;;5050130;28;20047;-77
2021/01/09 06:43:19;;;;;;;49.05;22.60;;;-3275.00;91.80;;;;;;5052536;28;20086;-77
2021/01/09 06:45:48;;;;;;;28.02;18.23;;;-3275.00;91.80;;;;;;5049536;28;20025;-79
2021/01/09 06:48:15;;;;;;;37.95;18.75;;;-3275.00;91.90;;;;;;5049100;28;20037;-77
2021/01/09 06:50:41;;;;;;;23.00;17.13;;;-3275.00;91.70;;;;;;5047541;28;20461;-76
2021/01/09 06:53:13;;;;;;;24.23;16.38;;;-3275.00;91.70;;;;;;5053253;28;20052;-77
2021/01/09 06:55:39;;;;;;;23.67;17.13;;;-3275.10;91.80;;;;;;5049612;28;20491;-83
2021/01/09 06:58:08;;;;;;;26.33;18.05;;;-3275.20;91.90;;;;;;5050245;28;20083;-76
2021/01/09 07:00:35;;;;;;;23.48;17.65;;;-3275.10;91.70;;;;;;5053645;28;20048;-77
2021/01/09 07:03:12;;;;;;;29.27;19.35;;;-3275.20;91.60;;;;;;5045917;28;20072;-78
2021/01/09 07:05:48;;;;;;;27.77;19.17;;;-3275.10;91.50;;;;;;5053740;28;20029;-77
2021/01/09 07:08:22;;;;;;;25.58;17.70;;;-3275.10;91.60;;;;;;5047925;28;20457;-77
2021/01/09 07:10:52;;;;;;;30.52;19.00;;;-3275.20;91.60;;;;;;5052811;28;20035;-78
2021/01/09 07:13:19;;;;;;;31.15;19.90;;;-3275.20;91.60;;;;;;5047199;28;20086;-80
2021/01/09 07:15:45;;;;;;;26.20;18.98;;;-3275.20;91.60;;;;;;5047585;28;20075;-79
2021/01/09 07:18:12;;;;;;;34.63;22.50;;;-3275.30;91.60;;;;;;5047729;28;20029;-85
2021/01/09 07:20:41;;;;;;;31.13;21.17;;;-3275.20;91.30;;;;;;5052916;28;20040;-88
2021/01/09 07:23:10;;;;;;;32.30;22.63;;;-3275.10;91.40;;;;;;5049454;28;20033;-79
2021/01/09 07:25:36;;;;;;;30.42;22.35;;;-3275.10;91.50;;;;;;5050616;28;20036;-77
2021/01/09 07:28:06;;;;;;;35.15;21.77;;;-3275.00;91.30;;;;;;5043375;28;20029;-77
2021/01/09 07:30:31;;;;;;;36.33;22.60;;;-3275.00;91.60;;;;;;5050976;28;20029;-78
2021/01/09 07:32:59;;;;;;;32.55;22.65;;;-3275.10;91.60;;;;;;5048508;28;20487;-77
2021/01/09 07:35:30;;;;;;;33.45;22.83;;;-3275.00;91.50;;;;;;5052644;28;20044;-77
2021/01/09 07:37:58;;;;;;;34.55;23.90;;;-3275.00;91.40;;;;;;5050698;28;20057;-77
2021/01/09 07:40:27;;;;;;;34.10;25.30;;;-3275.10;91.60;;;;;;5048059;28;20037;-77
2021/01/09 07:42:53;;;;;;;34.33;24.80;;;-3275.10;91.50;;;;;;5051743;28;20041;-77
2021/01/09 07:45:21;;;;;;;36.75;26.15;;;-3275.10;91.50;;;;;;5047129;28;20025;-79
2021/01/09 07:47:48;;;;;;;36.20;26.25;;;-3275.10;91.30;;;;;;5050736;28;20056;-78
2021/01/09 07:50:17;;;;;;;45.40;32.67;;;-3275.10;91.20;;;;;;5048945;28;20035;-83
2021/01/09 07:52:44;;;;;;;38.58;27.98;;;-3275.00;91.20;;;;;;5049687;28;20143;-79
2021/01/09 07:55:14;;;;;;;49.58;32.75;;;-3275.10;91.40;;;;;;5046173;28;20412;-78
2021/01/09 07:57:40;;;;;;;49.15;33.65;;;-3275.00;91.30;;;;;;5047344;28;20037;-78
2021/01/09 08:00:09;;;;;;;53.85;35.95;;;-3275.00;91.40;;;;;;5057689;28;20486;-85
2021/01/09 08:02:37;;;;;;;56.50;37.80;;;-3275.10;91.50;;;;;;5054616;28;20071;-78
2021/01/09 08:05:07;;;;;;;65.63;40.88;;;-3275.10;91.60;;;;;;5047449;28;20041;-80
2021/01/09 08:07:47;;;;;;;59.40;37.90;;;-3275.20;91.70;;;;;;5048860;28;20087;-81
2021/01/09 08:10:17;;;;;;;53.78;36.22;;;-3275.20;91.70;;;;;;5046463;28;20093;-80
2021/01/09 08:12:44;;;;;;;51.05;35.67;;;-3275.30;91.70;;;;;;5052948;28;20099;-79
2021/01/09 08:15:10;;;;;;;58.28;37.83;;;-3275.20;91.50;;;;;;5049721;28;20040;-80
2021/01/09 08:17:36;;;;;;;62.28;40.28;;;-3275.20;91.50;;;;;;5047907;28;20049;-79
2021/01/09 08:20:13;;;;;;;65.65;40.13;;;-3275.20;91.30;;;;;;5050136;28;20037;-85
2021/01/09 08:22:49;;;;;;;59.17;38.05;;;-3275.30;91.50;;;;;;5050329;28;20076;-81
2021/01/09 08:25:15;;;;;;;64.85;40.53;;;-3275.30;91.50;;;;;;5049860;28;20500;-80
2021/01/09 08:27:46;;;;;;;78.45;45.95;;;-3275.40;91.50;;;;;;5047688;28;20021;-79
2021/01/09 08:30:14;;;;;;;83.40;42.95;;;-3275.40;91.50;;;;;;5052352;28;20032;-81
2021/01/09 08:32:40;;;;;;;118.53;51.90;;;-3275.40;91.40;;;;;;5048615;28;20488;-80
2021/01/09 08:35:07;;;;;;;78.50;42.20;;;-3275.40;91.30;;;;;;5043820;28;20419;-80
2021/01/09 08:37:34;;;;;;;77.43;45.28;;;-3275.40;91.40;;;;;;5049608;28;20047;-80
2021/01/09 08:40:09;;;;;;;81.55;46.17;;;-3275.40;91.20;;;;;;5062491;28;20033;-82
2021/01/09 08:42:34;;;;;;;73.75;44.92;;;-3275.40;91.30;;;;;;5062420;28;20029;-79
2021/01/09 08:45:00;;;;;;;57.90;39.42;;;-3275.50;91.30;;;;;;5061538;28;20424;-79
2021/01/09 08:47:27;;;;;;;58.40;38.58;;;-3275.50;91.30;;;;;;5049358;28;20495;-80
2021/01/09 08:49:56;;;;;;;90.25;49.08;;;-3275.50;91.20;;;;;;5056085;28;20032;-79
2021/01/09 08:52:24;;;;;;;82.97;47.83;;;-3275.60;91.30;;;;;;5049040;28;20119;-84
2021/01/09 08:54:53;;;;;;;70.32;43.63;;;-3275.60;91.40;;;;;;5054081;28;20049;-79
2021/01/09 08:57:19;;;;;;;69.75;44.47;;;-3275.70;91.40;;;;;;5047413;28;20041;-80
2021/01/09 08:59:45;;;;;;;81.10;48.80;;;-3275.70;91.30;;;;;;5051982;28;20040;-81
2021/01/09 09:02:16;;;;;;;105.10;51.67;;;-3275.70;91.30;;;;;;5049266;28;20039;-79
2021/01/09 09:04:42;;;;;;;78.35;47.13;;;-3275.70;90.90;;;;;;5056693;28;20025;-79
2021/01/09 09:07:09;;;;;;;110.22;55.95;;;-3275.70;90.90;;;;;;5050663;28;20063;-72
2021/01/09 09:09:39;;;;;;;106.78;52.90;;;-3275.80;90.90;;;;;;5053890;28;20060;-71
2021/01/09 09:12:06;;;;;;;124.63;53.95;;;-3275.80;90.70;;;;;;5046632;28;20109;-74
2021/01/09 09:14:32;;;;;;;87.57;49.85;;;-3275.80;90.50;;;;;;5052980;28;20574;-72
2021/01/09 09:17:00;;;;;;;83.13;49.15;;;-3275.90;90.60;;;;;;5050921;28;20199;-70
2021/01/09 09:19:25;;;;;;;88.82;51.05;;;-3275.90;90.60;;;;;;5045395;28;20167;-69
2021/01/09 09:21:59;;;;;;;73.22;47.22;;;-3276.10;90.70;;;;;;5048026;28;20136;-69
2021/01/09 09:24:45;;;;;;;93.10;50.92;;;-3276.30;90.80;;;;;;5046375;28;20464;-70
2021/01/09 09:27:21;;;;;;;76.75;47.10;;;-3276.40;90.60;;;;;;5048246;28;20373;-70
2021/01/09 09:29:47;;;;;;;68.72;44.47;;;-3276.50;90.30;;;;;;5051201;28;20070;-69
2021/01/09 09:32:28;;;;;;;74.50;49.72;;;-3276.60;90.30;;;;;;5051840;28;20053;-70
2021/01/09 09:34:55;;;;;;;101.65;49.10;;;-3276.50;89.60;;;;;;5058112;28;20502;-69
2021/01/09 09:37:20;;;;;;;113.35;56.40;;;-3276.60;89.70;;;;;;5049783;28;20052;-69
2021/01/09 09:39:46;;;;;;;103.72;56.83;;;-3276.50;89.30;;;;;;5049726;28;20043;-69
2021/01/09 09:42:12;;;;;;;101.22;52.10;;;-3276.50;89.70;;;;;;5053878;28;20033;-70
2021/01/09 09:44:43;;;;;;;95.68;54.92;;;-3276.50;89.60;;;;;;5054809;28;20065;-70
2021/01/09 09:47:24;;;;;;;100.32;49.13;;;-3276.50;89.80;;;;;;5046194;28;20025;-73
2021/01/09 09:49:49;;;;;;;71.88;47.05;;;-3276.60;90.10;;;;;;5047237;28;20107;-70
2021/01/09 09:52:20;;;;;;;69.22;45.25;;;-3276.60;90.20;;;;;;5048657;28;20075;-70
2021/01/09 09:54:47;;;;;;;79.85;49.50;;;-3276.70;90.20;;;;;;5049413;28;20056;-71
2021/01/09 09:57:22;;;;;;;88.53;50.75;;;-3276.70;90.10;;;;;;5047228;28;20044;-70
2021/01/09 10:00:08;;;;;;;67.40;42.85;;;-3276.70;90.30;;;;;;5051985;28;20502;-70
2021/01/09 10:02:34;;;;;;;;;;;0.00;90.60;;;;;;5056327;28;20055;-69
2021/01/09 10:05:10;;;;;;;64.28;41.08;;;0.00;90.60;;;;;;5051933;28;19956;-71
2021/01/09 10:07:35;;;;;;;63.85;41.05;;;0.00;90.30;;;;;;5046787;28;20052;-69
2021/01/09 10:10:13;;;;;;;74.30;46.70;;;0.00;90.20;;;;;;5047632;28;20029;-71
2021/01/09 10:12:39;;;;;;;68.47;44.25;;;0.10;90.40;;;;;;5046842;28;20123;-72
2021/01/09 10:15:05;;;;;;;73.38;43.30;;;0.20;90.40;;;;;;5048470;28;20116;-70
2021/01/09 10:17:31;;;;;;;68.50;41.05;;;0.30;90.00;;;;;;5052076;28;20395;-69
2021/01/09 10:19:57;;;;;;;72.50;42.70;;;0.40;89.50;;;;;;5047598;28;20033;-70
2021/01/09 10:22:22;;;;;;;74.57;44.67;;;0.40;89.60;;;;;;5055994;28;20045;-69
2021/01/09 10:24:48;;;;;;;62.60;40.45;;;0.40;89.80;;;;;;5059602;28;20036;-70
2021/01/09 10:27:13;;;;;;;73.53;43.10;;;0.50;89.90;;;;;;5050429;28;20415;-69
2021/01/09 10:29:39;;;;;;;66.35;41.53;;;0.50;89.40;;;;;;5050545;28;20041;-70
2021/01/09 10:32:05;;;;;;;67.78;41.92;;;0.60;89.50;;;;;;5046980;28;20480;-70
2021/01/09 10:34:30;;;;;;;66.75;40.20;;;0.70;89.60;;;;;;5054436;28;20029;-69
2021/01/09 10:36:56;;;;;;;70.22;43.42;;;0.70;89.30;;;;;;5046545;28;20029;-70
2021/01/09 10:39:21;;;;;;;70.95;44.70;;;0.80;89.30;;;;;;5045655;28;20061;-70
2021/01/09 10:41:50;;;;;;;66.65;41.80;;;1.00;89.90;;;;;;5048893;28;20063;-69
2021/01/09 10:44:15;;;;;;;65.93;42.53;;;1.10;89.50;;;;;;5046687;28;20025;-73
2021/01/09 10:46:42;;;;;;;75.97;44.10;;;1.10;88.50;;;;;;5055140;28;20047;-69
2021/01/09 10:49:07;;;;;;;72.57;45.85;;;1.20;88.60;;;;;;5043340;28;20040;-70
2021/01/09 10:51:34;;;;;;;61.55;41.75;;;1.40;88.30;;;;;;5019308;28;20029;-70
2021/01/09 10:54:03;;;;;;;63.80;42.03;;;1.60;88.70;;;;;;5023910;28;20041;-71
2021/01/09 10:56:29;;;;;;;61.50;42.42;;;1.70;88.10;;;;;;5036348;28;20029;-73
2021/01/09 10:58:54;;;;;;;65.35;44.78;;;1.90;87.60;;;;;;5031782;28;20045;-72
2021/01/09 11:01:21;;;;;;;62.88;41.53;;;2.00;87.10;;;;;;5023989;28;20666;-71
2021/01/09 11:03:46;;;;;;;63.70;42.65;;;2.10;87.20;;;;;;5037909;28;20110;-74
2021/01/09 11:06:22;;;;;;;65.07;43.08;;;2.10;87.20;;;;;;5032953;28;20657;-73
2021/01/09 11:08:48;;;;;;;65.63;45.78;;;2.10;87.00;;;;;;5031886;28;20271;-71
2021/01/09 11:11:14;;;;;;;67.78;47.53;;;1.90;86.90;;;;;;5031959;28;20076;-72
2021/01/09 11:13:40;;;;;;;64.40;45.08;;;1.70;87.30;;;;;;5033106;28;20657;-69
2021/01/09 11:16:06;;;;;;;61.70;41.72;;;1.70;87.90;;;;;;5024660;28;20033;-70
2021/01/09 11:18:31;;;;;;;64.35;44.25;;;1.70;88.40;;;;;;5029356;28;20572;-73
2021/01/09 11:20:57;;;;;;;61.33;43.58;;;1.90;89.00;;;;;;5032342;28;20487;-72
2021/01/09 11:23:23;;;;;;;68.32;47.55;;;2.10;89.00;;;;;;5029433;28;20094;-72
2021/01/09 11:25:49;;;;;;;63.22;42.72;;;2.20;88.30;;;;;;5028336;28;20032;-69
2021/01/09 11:28:15;;;;;;;55.97;40.45;;;2.40;88.10;;;;;;5028319;28;20056;-73
2021/01/09 11:30:43;;;;;;;57.22;38.78;;;2.60;88.20;;;;;;5030598;28;20043;-74
2021/01/09 11:33:09;;;;;;;57.00;42.10;;;2.70;87.60;;;;;;5029864;28;20056;-69
2021/01/09 11:35:35;;;;;;;53.90;39.05;;;2.90;87.30;;;;;;5031348;28;20461;-75
2021/01/09 11:38:01;;;;;;;53.22;38.40;;;2.90;86.50;;;;;;5029880;28;20048;-73
2021/01/09 11:40:27;;;;;;;57.08;40.30;;;3.10;86.80;;;;;;5029938;28;20040;-71
2021/01/09 11:42:53;;;;;;;50.05;36.55;;;3.20;86.50;;;;;;5030005;28;20162;-74
2021/01/09 11:45:20;;;;;;;48.28;36.78;;;3.20;85.80;;;;;;5021626;28;20583;-74
2021/01/09 11:47:46;;;;;;;52.28;36.35;;;3.20;85.90;;;;;;5027274;28;20688;-72
2021/01/09 11:50:13;;;;;;;51.28;36.42;;;3.20;86.10;;;;;;5029206;28;20028;-71
2021/01/09 11:52:38;;;;;;;51.08;35.50;;;3.20;86.20;;;;;;5030175;28;20469;-71
2021/01/09 11:55:05;;;;;;;48.25;35.58;;;3.20;86.80;;;;;;5038683;28;20048;-73
2021/01/09 11:57:31;;;;;;;52.25;36.75;;;3.30;87.00;;;;;;5032060;28;20052;-72
2021/01/09 11:59:57;;;;;;;52.67;37.15;;;3.30;86.50;;;;;;5026860;28;20064;-73
2021/01/09 12:02:23;;;;;;;51.47;34.70;;;3.20;87.10;;;;;;5029138;28;20037;-72
2021/01/09 12:04:48;;;;;;;48.03;34.28;;;3.40;87.90;;;;;;5030546;28;20060;-73
2021/01/09 12:07:14;;;;;;;47.03;35.15;;;3.40;87.00;;;;;;5025396;28;20022;-73
2021/01/09 12:09:40;;;;;;;46.25;36.15;;;3.50;87.10;;;;;;5024398;28;20168;-72
2021/01/09 12:12:06;;;;;;;46.10;33.53;;;3.50;86.80;;;;;;5027974;28;20037;-74